sensor_id;sensor_type;location;lat;lon;timestamp;P1;durP1;ratioP1;P2;durP2;ratioP2
61344;SDS011;47216;42.656;23.232;2023-04-24T00:01:56;5.97;;;5.10;;
61344;SDS011;47216;42.656;23.232;2023-04-24T00:04:23;9.20;;;4.90;;
61344;SDS011;47216;42.656;23.232;2023-04-24T00:06:51;11.17;;;5.33;;
61344;SDS011;47216;42.656;23.232;2023-04-24T00:09:19;6.40;;;4.50;;
61344;SDS011;47216;42.656;23.232;2023-04-24T00:11:47;6.70;;;5.30;;
61344;SDS011;47216;42.656;23.232;2023-04-24T00:14:14;9.80;;;6.30;;
61344;SDS011;47216;42.656;23.232;2023-04-24T00:16:41;7.00;;;5.17;;
61344;SDS011;47216;42.656;23.232;2023-04-24T00:19:08;5.90;;;4.97;;
61344;SDS011;47216;42.656;23.232;2023-04-24T00:21:37;6.90;;;5.17;;
61344;SDS011;47216;42.656;23.232;2023-04-24T00:24:03;7.47;;;4.53;;
61344;SDS011;47216;42.656;23.232;2023-04-24T00:26:30;6.63;;;4.70;;
61344;SDS011;47216;42.656;23.232;2023-04-24T00:28:59;7.10;;;5.10;;
61344;SDS011;47216;42.656;23.232;2023-04-24T00:31:25;6.47;;;4.53;;
61344;SDS011;47216;42.656;23.232;2023-04-24T00:33:52;8.40;;;5.63;;
61344;SDS011;47216;42.656;23.232;2023-04-24T00:36:19;11.17;;;5.57;;
61344;SDS011;47216;42.656;23.232;2023-04-24T00:38:46;9.40;;;5.57;;
61344;SDS011;47216;42.656;23.232;2023-04-24T00:41:13;7.50;;;5.23;;
61344;SDS011;47216;42.656;23.232;2023-04-24T00:43:39;9.70;;;5.77;;
61344;SDS011;47216;42.656;23.232;2023-04-24T00:46:08;8.40;;;4.90;;
61344;SDS011;47216;42.656;23.232;2023-04-24T00:48:35;7.83;;;5.23;;
61344;SDS011;47216;42.656;23.232;2023-04-24T00:51:03;7.73;;;5.17;;
61344;SDS011;47216;42.656;23.232;2023-04-24T00:53:30;8.10;;;5.23;;
61344;SDS011;47216;42.656;23.232;2023-04-24T00:55:57;8.70;;;4.73;;
61344;SDS011;47216;42.656;23.232;2023-04-24T00:58:24;8.07;;;4.90;;
61344;SDS011;47216;42.656;23.232;2023-04-24T01:00:51;6.63;;;5.43;;
61344;SDS011;47216;42.656;23.232;2023-04-24T01:03:20;11.63;;;5.53;;
61344;SDS011;47216;42.656;23.232;2023-04-24T01:05:48;7.23;;;5.50;;
61344;SDS011;47216;42.656;23.232;2023-04-24T01:08:15;7.20;;;5.50;;
61344;SDS011;47216;42.656;23.232;2023-04-24T01:10:42;6.73;;;5.10;;
61344;SDS011;47216;42.656;23.232;2023-04-24T01:13:11;6.43;;;4.73;;
61344;SDS011;47216;42.656;23.232;2023-04-24T01:15:37;7.57;;;5.77;;
61344;SDS011;47216;42.656;23.232;2023-04-24T01:18:04;8.33;;;5.30;;
61344;SDS011;47216;42.656;23.232;2023-04-24T01:20:33;10.03;;;5.53;;
61344;SDS011;47216;42.656;23.232;2023-04-24T01:23:03;10.57;;;5.70;;
61344;SDS011;47216;42.656;23.232;2023-04-24T01:25:30;6.43;;;5.43;;
61344;SDS011;47216;42.656;23.232;2023-04-24T01:27:57;9.63;;;6.03;;
61344;SDS011;47216;42.656;23.232;2023-04-24T01:30:24;11.87;;;6.40;;
61344;SDS011;47216;42.656;23.232;2023-04-24T01:32:51;8.90;;;6.23;;
61344;SDS011;47216;42.656;23.232;2023-04-24T01:35:19;9.13;;;5.93;;
61344;SDS011;47216;42.656;23.232;2023-04-24T01:37:46;7.77;;;5.63;;
61344;SDS011;47216;42.656;23.232;2023-04-24T01:40:14;8.87;;;5.73;;
61344;SDS011;47216;42.656;23.232;2023-04-24T01:42:41;6.00;;;5.00;;
61344;SDS011;47216;42.656;23.232;2023-04-24T01:45:09;7.17;;;5.37;;
61344;SDS011;47216;42.656;23.232;2023-04-24T01:47:37;8.63;;;6.17;;
61344;SDS011;47216;42.656;23.232;2023-04-24T01:50:06;6.47;;;5.73;;
61344;SDS011;47216;42.656;23.232;2023-04-24T01:52:34;10.53;;;6.30;;
61344;SDS011;47216;42.656;23.232;2023-04-24T01:55:01;9.50;;;6.33;;
61344;SDS011;47216;42.656;23.232;2023-04-24T01:57:30;7.67;;;5.50;;
61344;SDS011;47216;42.656;23.232;2023-04-24T01:59:57;8.30;;;6.20;;
61344;SDS011;47216;42.656;23.232;2023-04-24T02:02:24;8.73;;;6.10;;
61344;SDS011;47216;42.656;23.232;2023-04-24T02:04:52;9.97;;;6.20;;
61344;SDS011;47216;42.656;23.232;2023-04-24T02:07:19;11.67;;;6.20;;
61344;SDS011;47216;42.656;23.232;2023-04-24T02:09:46;10.80;;;6.30;;
61344;SDS011;47216;42.656;23.232;2023-04-24T02:12:13;11.53;;;6.40;;
61344;SDS011;47216;42.656;23.232;2023-04-24T02:14:41;9.87;;;6.40;;
61344;SDS011;47216;42.656;23.232;2023-04-24T02:17:08;8.20;;;6.40;;
61344;SDS011;47216;42.656;23.232;2023-04-24T02:19:38;8.50;;;6.20;;
61344;SDS011;47216;42.656;23.232;2023-04-24T02:22:05;7.97;;;6.47;;
61344;SDS011;47216;42.656;23.232;2023-04-24T02:24:32;8.97;;;6.23;;
61344;SDS011;47216;42.656;23.232;2023-04-24T02:26:58;9.93;;;6.10;;
61344;SDS011;47216;42.656;23.232;2023-04-24T02:29:25;5.53;;;4.97;;
61344;SDS011;47216;42.656;23.232;2023-04-24T02:31:53;11.77;;;7.77;;
61344;SDS011;47216;42.656;23.232;2023-04-24T02:34:20;10.33;;;6.53;;
61344;SDS011;47216;42.656;23.232;2023-04-24T02:36:48;8.53;;;6.33;;
61344;SDS011;47216;42.656;23.232;2023-04-24T02:39:15;7.43;;;5.90;;
61344;SDS011;47216;42.656;23.232;2023-04-24T02:41:42;9.03;;;5.47;;
61344;SDS011;47216;42.656;23.232;2023-04-24T02:44:09;9.47;;;6.00;;
61344;SDS011;47216;42.656;23.232;2023-04-24T02:46:36;9.77;;;6.00;;
61344;SDS011;47216;42.656;23.232;2023-04-24T02:49:04;11.73;;;6.13;;
61344;SDS011;47216;42.656;23.232;2023-04-24T02:51:31;7.50;;;4.87;;
61344;SDS011;47216;42.656;23.232;2023-04-24T02:53:58;9.30;;;6.40;;
61344;SDS011;47216;42.656;23.232;2023-04-24T02:56:24;9.40;;;5.67;;
61344;SDS011;47216;42.656;23.232;2023-04-24T02:58:51;7.50;;;5.93;;
61344;SDS011;47216;42.656;23.232;2023-04-24T03:01:18;8.17;;;5.57;;
61344;SDS011;47216;42.656;23.232;2023-04-24T03:03:45;11.57;;;4.93;;
61344;SDS011;47216;42.656;23.232;2023-04-24T03:06:13;10.90;;;6.27;;
61344;SDS011;47216;42.656;23.232;2023-04-24T03:08:40;5.53;;;4.93;;
61344;SDS011;47216;42.656;23.232;2023-04-24T03:11:07;11.47;;;8.10;;
61344;SDS011;47216;42.656;23.232;2023-04-24T03:13:34;10.67;;;8.10;;
61344;SDS011;47216;42.656;23.232;2023-04-24T03:16:00;5.93;;;4.80;;
61344;SDS011;47216;42.656;23.232;2023-04-24T03:18:27;8.03;;;5.37;;
61344;SDS011;47216;42.656;23.232;2023-04-24T03:20:54;7.50;;;4.53;;
61344;SDS011;47216;42.656;23.232;2023-04-24T03:23:22;7.30;;;4.77;;
61344;SDS011;47216;42.656;23.232;2023-04-24T03:25:49;7.77;;;4.77;;
61344;SDS011;47216;42.656;23.232;2023-04-24T03:28:16;5.70;;;4.77;;
61344;SDS011;47216;42.656;23.232;2023-04-24T03:30:43;6.37;;;4.73;;
61344;SDS011;47216;42.656;23.232;2023-04-24T03:33:09;7.00;;;5.00;;
61344;SDS011;47216;42.656;23.232;2023-04-24T03:35:36;6.13;;;4.40;;
61344;SDS011;47216;42.656;23.232;2023-04-24T03:38:03;8.07;;;7.13;;
61344;SDS011;47216;42.656;23.232;2023-04-24T03:40:31;6.63;;;5.07;;
61344;SDS011;47216;42.656;23.232;2023-04-24T03:42:59;5.60;;;4.40;;
61344;SDS011;47216;42.656;23.232;2023-04-24T03:45:25;9.50;;;4.77;;
61344;SDS011;47216;42.656;23.232;2023-04-24T03:47:52;5.47;;;4.97;;
61344;SDS011;47216;42.656;23.232;2023-04-24T03:50:19;6.33;;;4.40;;
61344;SDS011;47216;42.656;23.232;2023-04-24T03:52:46;7.07;;;5.43;;
61344;SDS011;47216;42.656;23.232;2023-04-24T03:55:13;9.93;;;6.80;;
61344;SDS011;47216;42.656;23.232;2023-04-24T03:57:41;11.43;;;6.50;;
61344;SDS011;47216;42.656;23.232;2023-04-24T04:00:08;9.00;;;4.70;;
61344;SDS011;47216;42.656;23.232;2023-04-24T04:02:36;7.03;;;5.30;;
61344;SDS011;47216;42.656;23.232;2023-04-24T04:05:03;7.80;;;4.53;;
61344;SDS011;47216;42.656;23.232;2023-04-24T04:07:30;6.50;;;4.77;;
61344;SDS011;47216;42.656;23.232;2023-04-24T04:09:56;10.43;;;7.30;;
61344;SDS011;47216;42.656;23.232;2023-04-24T04:12:23;7.77;;;5.77;;
61344;SDS011;47216;42.656;23.232;2023-04-24T04:14:51;5.87;;;5.17;;
61344;SDS011;47216;42.656;23.232;2023-04-24T04:17:18;7.53;;;4.20;;
61344;SDS011;47216;42.656;23.232;2023-04-24T04:19:45;8.40;;;4.60;;
61344;SDS011;47216;42.656;23.232;2023-04-24T04:22:11;6.73;;;4.73;;
61344;SDS011;47216;42.656;23.232;2023-04-24T04:24:38;6.67;;;4.97;;
61344;SDS011;47216;42.656;23.232;2023-04-24T04:27:05;5.53;;;4.30;;
61344;SDS011;47216;42.656;23.232;2023-04-24T04:29:33;6.27;;;4.90;;
61344;SDS011;47216;42.656;23.232;2023-04-24T04:32:02;9.33;;;4.30;;
61344;SDS011;47216;42.656;23.232;2023-04-24T04:34:28;6.93;;;4.87;;
61344;SDS011;47216;42.656;23.232;2023-04-24T04:36:56;7.23;;;4.40;;
61344;SDS011;47216;42.656;23.232;2023-04-24T04:39:24;3.30;;;3.00;;
61344;SDS011;47216;42.656;23.232;2023-04-24T04:41:53;7.30;;;4.70;;
61344;SDS011;47216;42.656;23.232;2023-04-24T04:44:20;6.93;;;5.07;;
61344;SDS011;47216;42.656;23.232;2023-04-24T04:46:46;10.77;;;5.33;;
61344;SDS011;47216;42.656;23.232;2023-04-24T04:49:15;12.03;;;5.37;;
61344;SDS011;47216;42.656;23.232;2023-04-24T04:51:41;10.43;;;4.70;;
61344;SDS011;47216;42.656;23.232;2023-04-24T04:54:08;12.37;;;4.90;;
61344;SDS011;47216;42.656;23.232;2023-04-24T04:56:35;7.90;;;4.47;;
61344;SDS011;47216;42.656;23.232;2023-04-24T04:59:02;8.97;;;5.43;;
61344;SDS011;47216;42.656;23.232;2023-04-24T05:01:28;7.13;;;4.97;;
61344;SDS011;47216;42.656;23.232;2023-04-24T05:03:55;9.47;;;4.87;;
61344;SDS011;47216;42.656;23.232;2023-04-24T05:06:23;9.97;;;5.50;;
61344;SDS011;47216;42.656;23.232;2023-04-24T05:08:51;6.13;;;5.30;;
61344;SDS011;47216;42.656;23.232;2023-04-24T05:11:22;11.50;;;5.63;;
61344;SDS011;47216;42.656;23.232;2023-04-24T05:13:48;15.63;;;5.13;;
61344;SDS011;47216;42.656;23.232;2023-04-24T05:16:15;14.77;;;5.17;;
61344;SDS011;47216;42.656;23.232;2023-04-24T05:18:42;7.23;;;5.20;;
61344;SDS011;47216;42.656;23.232;2023-04-24T05:21:09;15.53;;;6.07;;
61344;SDS011;47216;42.656;23.232;2023-04-24T05:23:37;7.53;;;5.27;;
61344;SDS011;47216;42.656;23.232;2023-04-24T05:26:04;15.93;;;5.40;;
61344;SDS011;47216;42.656;23.232;2023-04-24T05:28:30;12.60;;;6.07;;
61344;SDS011;47216;42.656;23.232;2023-04-24T05:30:57;7.70;;;5.47;;
61344;SDS011;47216;42.656;23.232;2023-04-24T05:33:24;10.97;;;6.33;;
61344;SDS011;47216;42.656;23.232;2023-04-24T05:35:51;9.67;;;5.43;;
61344;SDS011;47216;42.656;23.232;2023-04-24T05:38:18;9.57;;;6.17;;
61344;SDS011;47216;42.656;23.232;2023-04-24T05:40:46;12.87;;;6.27;;
61344;SDS011;47216;42.656;23.232;2023-04-24T05:43:13;14.83;;;6.33;;
61344;SDS011;47216;42.656;23.232;2023-04-24T05:45:40;7.97;;;5.97;;
61344;SDS011;47216;42.656;23.232;2023-04-24T05:48:06;9.17;;;6.53;;
61344;SDS011;47216;42.656;23.232;2023-04-24T05:50:33;8.97;;;6.40;;
61344;SDS011;47216;42.656;23.232;2023-04-24T05:53:00;8.93;;;6.53;;
61344;SDS011;47216;42.656;23.232;2023-04-24T05:55:28;8.17;;;6.20;;
61344;SDS011;47216;42.656;23.232;2023-04-24T05:57:56;11.80;;;6.50;;
61344;SDS011;47216;42.656;23.232;2023-04-24T06:00:23;10.90;;;6.33;;
61344;SDS011;47216;42.656;23.232;2023-04-24T06:02:50;9.17;;;6.63;;
61344;SDS011;47216;42.656;23.232;2023-04-24T06:05:17;10.37;;;6.20;;
61344;SDS011;47216;42.656;23.232;2023-04-24T06:07:44;9.97;;;5.60;;
61344;SDS011;47216;42.656;23.232;2023-04-24T06:10:11;9.03;;;5.47;;
61344;SDS011;47216;42.656;23.232;2023-04-24T06:12:38;7.80;;;5.07;;
61344;SDS011;47216;42.656;23.232;2023-04-24T06:15:07;6.33;;;4.63;;
61344;SDS011;47216;42.656;23.232;2023-04-24T06:17:34;5.33;;;3.93;;
61344;SDS011;47216;42.656;23.232;2023-04-24T06:20:01;7.77;;;4.10;;
61344;SDS011;47216;42.656;23.232;2023-04-24T06:22:31;5.00;;;4.27;;
61344;SDS011;47216;42.656;23.232;2023-04-24T06:24:58;7.73;;;4.70;;
61344;SDS011;47216;42.656;23.232;2023-04-24T06:27:25;8.20;;;4.20;;
61344;SDS011;47216;42.656;23.232;2023-04-24T06:29:52;6.30;;;4.20;;
61344;SDS011;47216;42.656;23.232;2023-04-24T06:32:22;8.30;;;4.30;;
61344;SDS011;47216;42.656;23.232;2023-04-24T06:34:50;10.70;;;5.07;;
61344;SDS011;47216;42.656;23.232;2023-04-24T06:37:18;6.00;;;4.53;;
61344;SDS011;47216;42.656;23.232;2023-04-24T06:39:45;9.30;;;5.30;;
61344;SDS011;47216;42.656;23.232;2023-04-24T06:42:12;16.83;;;5.57;;
61344;SDS011;47216;42.656;23.232;2023-04-24T06:44:39;6.87;;;4.93;;
61344;SDS011;47216;42.656;23.232;2023-04-24T06:47:07;6.13;;;4.77;;
61344;SDS011;47216;42.656;23.232;2023-04-24T06:49:36;7.90;;;5.00;;
61344;SDS011;47216;42.656;23.232;2023-04-24T06:52:03;9.27;;;5.73;;
61344;SDS011;47216;42.656;23.232;2023-04-24T06:54:30;11.30;;;5.77;;
61344;SDS011;47216;42.656;23.232;2023-04-24T06:56:57;11.97;;;5.97;;
61344;SDS011;47216;42.656;23.232;2023-04-24T06:59:24;6.47;;;5.50;;
61344;SDS011;47216;42.656;23.232;2023-04-24T07:01:51;11.80;;;5.93;;
61344;SDS011;47216;42.656;23.232;2023-04-24T07:04:17;9.50;;;5.53;;
61344;SDS011;47216;42.656;23.232;2023-04-24T07:06:46;14.57;;;6.23;;
61344;SDS011;47216;42.656;23.232;2023-04-24T07:09:14;11.80;;;6.00;;
61344;SDS011;47216;42.656;23.232;2023-04-24T07:11:41;13.33;;;5.43;;
61344;SDS011;47216;42.656;23.232;2023-04-24T07:14:08;8.77;;;5.17;;
61344;SDS011;47216;42.656;23.232;2023-04-24T07:16:35;6.93;;;4.17;;
61344;SDS011;47216;42.656;23.232;2023-04-24T07:19:01;14.07;;;4.40;;
61344;SDS011;47216;42.656;23.232;2023-04-24T07:21:28;6.60;;;4.93;;
61344;SDS011;47216;42.656;23.232;2023-04-24T07:23:57;11.47;;;5.57;;
61344;SDS011;47216;42.656;23.232;2023-04-24T07:26:25;8.87;;;5.37;;
61344;SDS011;47216;42.656;23.232;2023-04-24T07:28:52;7.83;;;4.83;;
61344;SDS011;47216;42.656;23.232;2023-04-24T07:31:19;7.03;;;4.40;;
61344;SDS011;47216;42.656;23.232;2023-04-24T07:33:46;8.83;;;5.00;;
61344;SDS011;47216;42.656;23.232;2023-04-24T07:36:14;12.70;;;5.10;;
61344;SDS011;47216;42.656;23.232;2023-04-24T07:38:44;8.90;;;6.07;;
61344;SDS011;47216;42.656;23.232;2023-04-24T07:41:12;7.83;;;5.07;;
61344;SDS011;47216;42.656;23.232;2023-04-24T07:43:39;7.47;;;4.93;;
61344;SDS011;47216;42.656;23.232;2023-04-24T07:46:06;7.57;;;4.80;;
61344;SDS011;47216;42.656;23.232;2023-04-24T07:48:33;9.03;;;5.33;;
61344;SDS011;47216;42.656;23.232;2023-04-24T07:51:00;8.23;;;5.63;;
61344;SDS011;47216;42.656;23.232;2023-04-24T07:53:27;6.03;;;4.63;;
61344;SDS011;47216;42.656;23.232;2023-04-24T07:55:54;7.77;;;4.40;;
61344;SDS011;47216;42.656;23.232;2023-04-24T07:58:22;7.07;;;5.30;;
61344;SDS011;47216;42.656;23.232;2023-04-24T08:00:50;9.20;;;5.10;;
61344;SDS011;47216;42.656;23.232;2023-04-24T08:03:18;8.20;;;4.33;;
61344;SDS011;47216;42.656;23.232;2023-04-24T08:05:45;8.87;;;4.70;;
61344;SDS011;47216;42.656;23.232;2023-04-24T08:08:12;5.67;;;4.47;;
61344;SDS011;47216;42.656;23.232;2023-04-24T08:10:39;5.73;;;4.57;;
61344;SDS011;47216;42.656;23.232;2023-04-24T08:13:06;6.20;;;4.47;;
61344;SDS011;47216;42.656;23.232;2023-04-24T08:15:34;5.30;;;4.50;;
61344;SDS011;47216;42.656;23.232;2023-04-24T08:18:01;5.50;;;4.37;;
61344;SDS011;47216;42.656;23.232;2023-04-24T08:20:28;6.97;;;4.50;;
61344;SDS011;47216;42.656;23.232;2023-04-24T08:22:55;6.33;;;4.83;;
61344;SDS011;47216;42.656;23.232;2023-04-24T08:25:22;13.43;;;4.33;;
61344;SDS011;47216;42.656;23.232;2023-04-24T08:27:49;5.33;;;4.40;;
61344;SDS011;47216;42.656;23.232;2023-04-24T08:30:16;7.57;;;5.20;;
61344;SDS011;47216;42.656;23.232;2023-04-24T08:32:45;8.50;;;4.97;;
61344;SDS011;47216;42.656;23.232;2023-04-24T08:35:12;6.13;;;4.63;;
61344;SDS011;47216;42.656;23.232;2023-04-24T08:37:39;8.20;;;5.10;;
61344;SDS011;47216;42.656;23.232;2023-04-24T08:40:06;8.47;;;4.37;;
61344;SDS011;47216;42.656;23.232;2023-04-24T08:42:39;11.30;;;5.00;;
61344;SDS011;47216;42.656;23.232;2023-04-24T08:45:07;6.23;;;4.40;;
61344;SDS011;47216;42.656;23.232;2023-04-24T08:47:35;7.40;;;4.77;;
61344;SDS011;47216;42.656;23.232;2023-04-24T08:50:06;8.63;;;5.10;;
61344;SDS011;47216;42.656;23.232;2023-04-24T08:52:34;5.30;;;4.77;;
61344;SDS011;47216;42.656;23.232;2023-04-24T08:55:02;11.23;;;5.00;;
61344;SDS011;47216;42.656;23.232;2023-04-24T08:57:29;8.23;;;4.90;;
61344;SDS011;47216;42.656;23.232;2023-04-24T08:59:58;11.30;;;5.80;;
61344;SDS011;47216;42.656;23.232;2023-04-24T09:02:26;8.50;;;4.90;;
61344;SDS011;47216;42.656;23.232;2023-04-24T09:04:55;7.17;;;5.17;;
61344;SDS011;47216;42.656;23.232;2023-04-24T09:07:25;7.50;;;5.47;;
61344;SDS011;47216;42.656;23.232;2023-04-24T09:09:53;12.13;;;5.43;;
61344;SDS011;47216;42.656;23.232;2023-04-24T09:12:21;6.23;;;4.40;;
61344;SDS011;47216;42.656;23.232;2023-04-24T09:14:48;7.60;;;5.23;;
61344;SDS011;47216;42.656;23.232;2023-04-24T09:17:16;8.20;;;5.10;;
61344;SDS011;47216;42.656;23.232;2023-04-24T09:19:43;8.47;;;5.10;;
61344;SDS011;47216;42.656;23.232;2023-04-24T09:22:10;5.73;;;4.50;;
61344;SDS011;47216;42.656;23.232;2023-04-24T09:24:39;8.00;;;4.37;;
61344;SDS011;47216;42.656;23.232;2023-04-24T09:27:06;11.93;;;4.73;;
61344;SDS011;47216;42.656;23.232;2023-04-24T09:29:33;6.30;;;4.77;;
61344;SDS011;47216;42.656;23.232;2023-04-24T09:32:04;9.60;;;4.30;;
61344;SDS011;47216;42.656;23.232;2023-04-24T09:34:44;8.60;;;4.57;;
61344;SDS011;47216;42.656;23.232;2023-04-24T09:37:15;6.07;;;4.20;;
61344;SDS011;47216;42.656;23.232;2023-04-24T09:40:08;7.33;;;4.00;;
61344;SDS011;47216;42.656;23.232;2023-04-24T09:42:39;5.80;;;4.47;;
61344;SDS011;47216;42.656;23.232;2023-04-24T09:45:10;7.43;;;4.07;;
61344;SDS011;47216;42.656;23.232;2023-04-24T09:47:37;3.40;;;2.73;;
61344;SDS011;47216;42.656;23.232;2023-04-24T09:50:13;5.73;;;2.77;;
61344;SDS011;47216;42.656;23.232;2023-04-24T09:52:42;7.53;;;2.90;;
61344;SDS011;47216;42.656;23.232;2023-04-24T09:55:12;6.97;;;2.90;;
61344;SDS011;47216;42.656;23.232;2023-04-24T09:57:52;3.37;;;2.73;;
61344;SDS011;47216;42.656;23.232;2023-04-24T10:00:21;4.50;;;2.70;;
61344;SDS011;47216;42.656;23.232;2023-04-24T10:02:55;4.53;;;2.50;;
61344;SDS011;47216;42.656;23.232;2023-04-24T10:05:24;2.97;;;2.60;;
61344;SDS011;47216;42.656;23.232;2023-04-24T10:07:55;2.47;;;2.23;;
61344;SDS011;47216;42.656;23.232;2023-04-24T10:10:25;6.20;;;2.60;;
61344;SDS011;47216;42.656;23.232;2023-04-24T10:12:52;2.90;;;2.20;;
61344;SDS011;47216;42.656;23.232;2023-04-24T10:15:19;3.73;;;2.70;;
61344;SDS011;47216;42.656;23.232;2023-04-24T10:17:47;3.43;;;2.70;;
61344;SDS011;47216;42.656;23.232;2023-04-24T10:20:18;4.67;;;2.70;;
61344;SDS011;47216;42.656;23.232;2023-04-24T10:22:49;4.40;;;2.83;;
61344;SDS011;47216;42.656;23.232;2023-04-24T10:25:18;3.60;;;2.70;;
61344;SDS011;47216;42.656;23.232;2023-04-24T10:27:48;4.00;;;2.50;;
61344;SDS011;47216;42.656;23.232;2023-04-24T10:30:16;8.23;;;2.53;;
61344;SDS011;47216;42.656;23.232;2023-04-24T10:32:44;3.97;;;2.60;;
61344;SDS011;47216;42.656;23.232;2023-04-24T10:35:11;3.37;;;3.07;;
61344;SDS011;47216;42.656;23.232;2023-04-24T10:37:40;5.93;;;3.00;;
61344;SDS011;47216;42.656;23.232;2023-04-24T10:40:10;2.83;;;2.30;;
61344;SDS011;47216;42.656;23.232;2023-04-24T10:42:39;5.53;;;2.70;;
61344;SDS011;47216;42.656;23.232;2023-04-24T10:45:16;4.57;;;2.60;;
61344;SDS011;47216;42.656;23.232;2023-04-24T10:50:29;6.40;;;2.93;;
61344;SDS011;47216;42.656;23.232;2023-04-24T10:53:11;3.73;;;2.40;;
61344;SDS011;47216;42.656;23.232;2023-04-24T10:55:40;3.27;;;2.80;;
61344;SDS011;47216;42.656;23.232;2023-04-24T10:58:09;3.60;;;2.80;;
61344;SDS011;47216;42.656;23.232;2023-04-24T11:00:38;3.47;;;2.30;;
61344;SDS011;47216;42.656;23.232;2023-04-24T11:03:06;3.40;;;2.70;;
61344;SDS011;47216;42.656;23.232;2023-04-24T11:05:51;3.80;;;2.67;;
61344;SDS011;47216;42.656;23.232;2023-04-24T11:08:23;4.27;;;2.70;;
61344;SDS011;47216;42.656;23.232;2023-04-24T11:10:59;6.23;;;3.30;;
61344;SDS011;47216;42.656;23.232;2023-04-24T11:13:28;5.23;;;3.03;;
61344;SDS011;47216;42.656;23.232;2023-04-24T11:16:38;4.40;;;3.30;;
61344;SDS011;47216;42.656;23.232;2023-04-24T11:19:10;4.07;;;2.70;;
61344;SDS011;47216;42.656;23.232;2023-04-24T11:21:46;4.23;;;2.90;;
61344;SDS011;47216;42.656;23.232;2023-04-24T11:24:23;3.23;;;2.70;;
61344;SDS011;47216;42.656;23.232;2023-04-24T11:26:54;4.20;;;3.10;;
61344;SDS011;47216;42.656;23.232;2023-04-24T11:29:22;6.20;;;3.37;;
61344;SDS011;47216;42.656;23.232;2023-04-24T11:32:15;5.73;;;3.53;;
61344;SDS011;47216;42.656;23.232;2023-04-24T11:34:46;6.97;;;4.07;;
61344;SDS011;47216;42.656;23.232;2023-04-24T11:37:14;4.50;;;3.90;;
61344;SDS011;47216;42.656;23.232;2023-04-24T11:39:41;7.87;;;5.07;;
61344;SDS011;47216;42.656;23.232;2023-04-24T11:42:08;8.17;;;4.37;;
61344;SDS011;47216;42.656;23.232;2023-04-24T11:44:36;6.70;;;4.47;;
61344;SDS011;47216;42.656;23.232;2023-04-24T11:47:03;9.97;;;4.60;;
61344;SDS011;47216;42.656;23.232;2023-04-24T11:49:32;10.63;;;4.70;;
61344;SDS011;47216;42.656;23.232;2023-04-24T11:51:59;7.53;;;4.77;;
61344;SDS011;47216;42.656;23.232;2023-04-24T11:54:26;4.17;;;3.53;;
61344;SDS011;47216;42.656;23.232;2023-04-24T11:56:53;5.87;;;3.17;;
61344;SDS011;47216;42.656;23.232;2023-04-24T11:59:21;3.70;;;3.30;;
61344;SDS011;47216;42.656;23.232;2023-04-24T12:01:48;5.07;;;3.07;;
61344;SDS011;47216;42.656;23.232;2023-04-24T12:04:16;3.77;;;3.30;;
61344;SDS011;47216;42.656;23.232;2023-04-24T12:07:00;5.47;;;3.43;;
61344;SDS011;47216;42.656;23.232;2023-04-24T12:09:27;7.57;;;3.70;;
61344;SDS011;47216;42.656;23.232;2023-04-24T12:11:55;5.03;;;3.70;;
61344;SDS011;47216;42.656;23.232;2023-04-24T12:14:23;5.40;;;3.13;;
61344;SDS011;47216;42.656;23.232;2023-04-24T12:16:50;4.97;;;3.50;;
61344;SDS011;47216;42.656;23.232;2023-04-24T12:19:20;3.47;;;3.00;;
61344;SDS011;47216;42.656;23.232;2023-04-24T12:21:58;5.27;;;2.80;;
61344;SDS011;47216;42.656;23.232;2023-04-24T12:24:28;5.90;;;2.80;;
61344;SDS011;47216;42.656;23.232;2023-04-24T12:26:56;3.60;;;3.03;;
61344;SDS011;47216;42.656;23.232;2023-04-24T12:29:23;4.50;;;3.37;;
61344;SDS011;47216;42.656;23.232;2023-04-24T12:31:51;3.37;;;3.07;;
61344;SDS011;47216;42.656;23.232;2023-04-24T12:34:18;3.37;;;3.07;;
61344;SDS011;47216;42.656;23.232;2023-04-24T12:36:45;2.90;;;2.70;;
61344;SDS011;47216;42.656;23.232;2023-04-24T12:39:16;10.77;;;3.53;;
61344;SDS011;47216;42.656;23.232;2023-04-24T12:41:50;3.23;;;2.93;;
61344;SDS011;47216;42.656;23.232;2023-04-24T12:44:28;3.37;;;2.93;;
61344;SDS011;47216;42.656;23.232;2023-04-24T12:46:56;4.57;;;2.73;;
61344;SDS011;47216;42.656;23.232;2023-04-24T12:49:22;5.93;;;3.37;;
61344;SDS011;47216;42.656;23.232;2023-04-24T12:51:49;2.97;;;2.67;;
61344;SDS011;47216;42.656;23.232;2023-04-24T12:54:18;7.40;;;3.17;;
61344;SDS011;47216;42.656;23.232;2023-04-24T12:56:44;6.20;;;3.23;;
61344;SDS011;47216;42.656;23.232;2023-04-24T12:59:11;6.00;;;3.23;;
61344;SDS011;47216;42.656;23.232;2023-04-24T13:01:38;3.90;;;3.10;;
61344;SDS011;47216;42.656;23.232;2023-04-24T13:04:05;2.77;;;2.50;;
61344;SDS011;47216;42.656;23.232;2023-04-24T13:06:32;4.50;;;3.00;;
61344;SDS011;47216;42.656;23.232;2023-04-24T13:08:59;3.13;;;2.83;;
61344;SDS011;47216;42.656;23.232;2023-04-24T13:11:27;6.47;;;3.10;;
61344;SDS011;47216;42.656;23.232;2023-04-24T13:13:54;7.03;;;3.33;;
61344;SDS011;47216;42.656;23.232;2023-04-24T13:16:21;3.27;;;2.97;;
61344;SDS011;47216;42.656;23.232;2023-04-24T13:18:48;4.13;;;2.93;;
61344;SDS011;47216;42.656;23.232;2023-04-24T13:21:15;4.83;;;3.27;;
61344;SDS011;47216;42.656;23.232;2023-04-24T13:23:42;4.50;;;2.73;;
61344;SDS011;47216;42.656;23.232;2023-04-24T13:26:08;4.90;;;2.50;;
61344;SDS011;47216;42.656;23.232;2023-04-24T13:28:37;5.43;;;2.83;;
61344;SDS011;47216;42.656;23.232;2023-04-24T13:31:04;4.10;;;2.50;;
61344;SDS011;47216;42.656;23.232;2023-04-24T13:33:31;3.43;;;2.50;;
61344;SDS011;47216;42.656;23.232;2023-04-24T13:35:58;6.27;;;2.70;;
61344;SDS011;47216;42.656;23.232;2023-04-24T13:38:25;3.73;;;2.30;;
61344;SDS011;47216;42.656;23.232;2023-04-24T13:40:52;3.10;;;2.60;;
61344;SDS011;47216;42.656;23.232;2023-04-24T13:43:18;3.03;;;2.30;;
61344;SDS011;47216;42.656;23.232;2023-04-24T13:45:47;8.20;;;2.77;;
61344;SDS011;47216;42.656;23.232;2023-04-24T13:48:13;3.10;;;2.40;;
61344;SDS011;47216;42.656;23.232;2023-04-24T13:50:41;3.07;;;2.40;;
61344;SDS011;47216;42.656;23.232;2023-04-24T13:53:08;2.97;;;2.33;;
61344;SDS011;47216;42.656;23.232;2023-04-24T13:55:35;2.57;;;2.37;;
61344;SDS011;47216;42.656;23.232;2023-04-24T13:58:04;3.17;;;2.60;;
61344;SDS011;47216;42.656;23.232;2023-04-24T14:00:31;2.67;;;2.40;;
61344;SDS011;47216;42.656;23.232;2023-04-24T14:02:59;3.93;;;2.37;;
61344;SDS011;47216;42.656;23.232;2023-04-24T14:05:26;3.40;;;2.70;;
61344;SDS011;47216;42.656;23.232;2023-04-24T14:07:53;3.15;;;2.60;;
61344;SDS011;47216;42.656;23.232;2023-04-24T14:10:20;3.95;;;2.88;;
61344;SDS011;47216;42.656;23.232;2023-04-24T14:12:47;4.00;;;2.53;;
61344;SDS011;47216;42.656;23.232;2023-04-24T14:15:14;4.28;;;2.60;;
61344;SDS011;47216;42.656;23.232;2023-04-24T14:17:41;2.75;;;2.40;;
61344;SDS011;47216;42.656;23.232;2023-04-24T14:20:11;3.53;;;2.40;;
61344;SDS011;47216;42.656;23.232;2023-04-24T14:22:38;5.68;;;2.70;;
61344;SDS011;47216;42.656;23.232;2023-04-24T14:25:05;4.63;;;2.38;;
61344;SDS011;47216;42.656;23.232;2023-04-24T14:27:33;22.17;;;14.82;;
61344;SDS011;47216;42.656;23.232;2023-04-24T14:30:01;3.30;;;2.97;;
61344;SDS011;47216;42.656;23.232;2023-04-24T14:32:30;3.33;;;2.70;;
61344;SDS011;47216;42.656;23.232;2023-04-24T14:34:57;3.37;;;2.20;;
61344;SDS011;47216;42.656;23.232;2023-04-24T14:37:26;6.73;;;2.47;;
61344;SDS011;47216;42.656;23.232;2023-04-24T14:39:52;3.33;;;2.40;;
61344;SDS011;47216;42.656;23.232;2023-04-24T14:42:19;3.30;;;2.40;;